CheckWX is a tool to help pilots better visualize weather data.  It is not intended as a substitute for an official pre-flight weather briefing.

00:41:10 UTC

KBVI METAR
Beaver County Airport
Beaver Falls, Pennsylvania, USA
Current

4 hours ago

KBVI 202047Z 28008G17KT 10SM CLR 19/06 A2955 RMK LAST.
Observed
Apr-20 @ 20:47 UTC
Wind
  • 280° at 8 KTS
  • Gusting to 17 KTS
Visibility
10 SM
Flight Rules
VFR
Cloud Levels
  • Clear skies
Temperature
19°C / 66°F
Dewpoint
C / 43°F
Humidity
43%
Altimeter
29.55" Hg
Pressure
1000.72 hPa
Previous

7 hours ago

KBVI 201747Z 25009G17KT 10SM SCT034 BKN045 17/08 A2956
Observed
Apr-20 @ 17:47 UTC
Wind
  • 250° at 9 KTS
  • Gusting to 17 KTS
Visibility
10 SM
Flight Rules
VFR
Cloud Levels
  • Scattered at 3,400' AGL
  • Broken at 4,500' AGL
Temperature
17°C / 63°F
Dewpoint
C / 46°F
Humidity
56%
Altimeter
29.56" Hg
Pressure
1001.02 hPa
Previous

9 hours ago

KBVI 201547Z 23010KT 10SM BKN016 15/10 A2954
Observed
Apr-20 @ 15:47 UTC
Wind
  • 230° at 10 KTS
Visibility
10 SM
Flight Rules
MVFR
Cloud Levels
  • Broken at 1,600' AGL
Temperature
15°C / 59°F
Dewpoint
10°C / 50°F
Humidity
72%
Altimeter
29.54" Hg
Pressure
1000.32 hPa